sensor_id;sensor_type;location;lat;lon;timestamp;P1;durP1;ratioP1;P2;durP2;ratioP2
34019;SDS011;20895;51.034;3.742;2022-07-23T00:01:19;9.85;;;6.10;;
34019;SDS011;20895;51.034;3.742;2022-07-23T00:03:44;9.07;;;6.10;;
34019;SDS011;20895;51.034;3.742;2022-07-23T00:06:10;12.98;;;5.88;;
34019;SDS011;20895;51.034;3.742;2022-07-23T00:08:35;10.23;;;6.65;;
34019;SDS011;20895;51.034;3.742;2022-07-23T00:11:00;8.35;;;6.22;;
34019;SDS011;20895;51.034;3.742;2022-07-23T00:13:26;8.93;;;5.90;;
34019;SDS011;20895;51.034;3.742;2022-07-23T00:15:51;12.20;;;6.65;;
34019;SDS011;20895;51.034;3.742;2022-07-23T00:18:17;9.38;;;6.28;;
34019;SDS011;20895;51.034;3.742;2022-07-23T00:20:42;10.32;;;6.30;;
34019;SDS011;20895;51.034;3.742;2022-07-23T00:23:07;8.95;;;5.93;;
34019;SDS011;20895;51.034;3.742;2022-07-23T00:25:32;13.02;;;7.13;;
34019;SDS011;20895;51.034;3.742;2022-07-23T00:28:01;7.20;;;6.45;;
34019;SDS011;20895;51.034;3.742;2022-07-23T00:30:26;7.28;;;6.10;;
34019;SDS011;20895;51.034;3.742;2022-07-23T00:32:55;8.00;;;6.32;;
34019;SDS011;20895;51.034;3.742;2022-07-23T00:35:26;8.63;;;6.13;;
34019;SDS011;20895;51.034;3.742;2022-07-23T00:37:53;10.27;;;6.63;;
34019;SDS011;20895;51.034;3.742;2022-07-23T00:40:18;7.53;;;6.40;;
34019;SDS011;20895;51.034;3.742;2022-07-23T00:42:43;8.73;;;6.68;;
34019;SDS011;20895;51.034;3.742;2022-07-23T00:45:09;10.27;;;6.90;;
34019;SDS011;20895;51.034;3.742;2022-07-23T00:47:34;9.13;;;6.25;;
34019;SDS011;20895;51.034;3.742;2022-07-23T00:49:59;8.40;;;6.40;;
34019;SDS011;20895;51.034;3.742;2022-07-23T00:52:25;8.82;;;6.90;;
34019;SDS011;20895;51.034;3.742;2022-07-23T00:54:50;8.25;;;7.35;;
34019;SDS011;20895;51.034;3.742;2022-07-23T00:57:15;9.43;;;6.88;;
34019;SDS011;20895;51.034;3.742;2022-07-23T00:59:41;11.32;;;7.22;;
34019;SDS011;20895;51.034;3.742;2022-07-23T01:02:06;8.75;;;6.50;;
34019;SDS011;20895;51.034;3.742;2022-07-23T01:04:32;10.15;;;7.60;;
34019;SDS011;20895;51.034;3.742;2022-07-23T01:06:57;9.27;;;6.90;;
34019;SDS011;20895;51.034;3.742;2022-07-23T01:09:22;11.52;;;7.18;;
34019;SDS011;20895;51.034;3.742;2022-07-23T01:11:47;7.60;;;6.70;;
34019;SDS011;20895;51.034;3.742;2022-07-23T01:14:17;8.40;;;6.65;;
34019;SDS011;20895;51.034;3.742;2022-07-23T01:16:43;8.30;;;6.53;;
34019;SDS011;20895;51.034;3.742;2022-07-23T01:19:09;9.55;;;7.40;;
34019;SDS011;20895;51.034;3.742;2022-07-23T01:21:35;10.48;;;7.22;;
34019;SDS011;20895;51.034;3.742;2022-07-23T01:24:01;9.45;;;6.60;;
34019;SDS011;20895;51.034;3.742;2022-07-23T01:26:26;9.82;;;6.28;;
34019;SDS011;20895;51.034;3.742;2022-07-23T01:28:51;8.00;;;7.18;;
34019;SDS011;20895;51.034;3.742;2022-07-23T01:31:16;11.32;;;6.90;;
34019;SDS011;20895;51.034;3.742;2022-07-23T01:33:42;10.95;;;8.10;;
34019;SDS011;20895;51.034;3.742;2022-07-23T01:36:08;10.80;;;7.53;;
34019;SDS011;20895;51.034;3.742;2022-07-23T01:38:33;10.68;;;6.88;;
34019;SDS011;20895;51.034;3.742;2022-07-23T01:40:58;11.15;;;8.02;;
34019;SDS011;20895;51.034;3.742;2022-07-23T01:43:24;10.65;;;7.72;;
34019;SDS011;20895;51.034;3.742;2022-07-23T01:45:49;10.27;;;7.82;;
34019;SDS011;20895;51.034;3.742;2022-07-23T01:48:14;10.50;;;8.05;;
34019;SDS011;20895;51.034;3.742;2022-07-23T01:50:40;9.88;;;8.18;;
34019;SDS011;20895;51.034;3.742;2022-07-23T01:53:05;15.77;;;8.30;;
34019;SDS011;20895;51.034;3.742;2022-07-23T01:55:31;9.90;;;7.95;;
34019;SDS011;20895;51.034;3.742;2022-07-23T01:57:56;8.93;;;7.97;;
34019;SDS011;20895;51.034;3.742;2022-07-23T02:00:21;13.63;;;8.07;;
34019;SDS011;20895;51.034;3.742;2022-07-23T02:02:46;11.02;;;7.22;;
34019;SDS011;20895;51.034;3.742;2022-07-23T02:05:11;13.48;;;7.88;;
34019;SDS011;20895;51.034;3.742;2022-07-23T02:07:37;17.85;;;8.52;;
34019;SDS011;20895;51.034;3.742;2022-07-23T02:10:02;10.73;;;8.45;;
34019;SDS011;20895;51.034;3.742;2022-07-23T02:12:28;11.25;;;8.60;;
34019;SDS011;20895;51.034;3.742;2022-07-23T02:14:53;11.52;;;8.68;;
34019;SDS011;20895;51.034;3.742;2022-07-23T02:17:18;12.00;;;8.05;;
34019;SDS011;20895;51.034;3.742;2022-07-23T02:19:43;9.82;;;7.43;;
34019;SDS011;20895;51.034;3.742;2022-07-23T02:22:08;12.20;;;8.52;;
34019;SDS011;20895;51.034;3.742;2022-07-23T02:24:34;12.52;;;8.00;;
34019;SDS011;20895;51.034;3.742;2022-07-23T02:26:59;9.18;;;7.43;;
34019;SDS011;20895;51.034;3.742;2022-07-23T02:29:24;9.45;;;8.45;;
34019;SDS011;20895;51.034;3.742;2022-07-23T02:31:49;10.20;;;8.27;;
34019;SDS011;20895;51.034;3.742;2022-07-23T02:34:15;12.20;;;8.40;;
34019;SDS011;20895;51.034;3.742;2022-07-23T02:36:40;10.70;;;7.90;;
34019;SDS011;20895;51.034;3.742;2022-07-23T02:39:05;14.85;;;8.57;;
34019;SDS011;20895;51.034;3.742;2022-07-23T02:41:30;12.73;;;8.43;;
34019;SDS011;20895;51.034;3.742;2022-07-23T02:43:56;10.68;;;9.57;;
34019;SDS011;20895;51.034;3.742;2022-07-23T02:46:21;12.50;;;7.50;;
34019;SDS011;20895;51.034;3.742;2022-07-23T02:48:46;10.02;;;7.75;;
34019;SDS011;20895;51.034;3.742;2022-07-23T02:51:11;10.23;;;7.70;;
34019;SDS011;20895;51.034;3.742;2022-07-23T02:53:37;11.82;;;8.00;;
34019;SDS011;20895;51.034;3.742;2022-07-23T02:56:02;11.05;;;7.90;;
34019;SDS011;20895;51.034;3.742;2022-07-23T02:58:27;12.80;;;8.82;;
34019;SDS011;20895;51.034;3.742;2022-07-23T03:00:53;10.02;;;7.82;;
34019;SDS011;20895;51.034;3.742;2022-07-23T03:03:18;10.15;;;8.73;;
34019;SDS011;20895;51.034;3.742;2022-07-23T03:05:43;10.95;;;7.90;;
34019;SDS011;20895;51.034;3.742;2022-07-23T03:08:09;9.82;;;7.95;;
34019;SDS011;20895;51.034;3.742;2022-07-23T03:10:34;10.65;;;8.68;;
34019;SDS011;20895;51.034;3.742;2022-07-23T03:12:59;12.75;;;8.85;;
34019;SDS011;20895;51.034;3.742;2022-07-23T03:15:24;11.48;;;8.95;;
34019;SDS011;20895;51.034;3.742;2022-07-23T03:17:50;15.35;;;9.43;;
34019;SDS011;20895;51.034;3.742;2022-07-23T03:20:15;10.85;;;8.52;;
34019;SDS011;20895;51.034;3.742;2022-07-23T03:22:40;13.10;;;8.82;;
34019;SDS011;20895;51.034;3.742;2022-07-23T03:25:05;12.65;;;8.88;;
34019;SDS011;20895;51.034;3.742;2022-07-23T03:27:31;12.88;;;8.98;;
34019;SDS011;20895;51.034;3.742;2022-07-23T03:29:57;12.05;;;9.50;;
34019;SDS011;20895;51.034;3.742;2022-07-23T03:32:23;12.32;;;9.10;;
34019;SDS011;20895;51.034;3.742;2022-07-23T03:34:49;11.82;;;8.98;;
34019;SDS011;20895;51.034;3.742;2022-07-23T03:37:14;12.10;;;8.75;;
34019;SDS011;20895;51.034;3.742;2022-07-23T03:39:40;14.55;;;9.90;;
34019;SDS011;20895;51.034;3.742;2022-07-23T03:42:05;11.43;;;9.07;;
34019;SDS011;20895;51.034;3.742;2022-07-23T03:44:31;13.25;;;9.25;;
34019;SDS011;20895;51.034;3.742;2022-07-23T03:46:56;11.73;;;9.30;;
34019;SDS011;20895;51.034;3.742;2022-07-23T03:49:21;13.40;;;9.75;;
34019;SDS011;20895;51.034;3.742;2022-07-23T03:51:47;13.00;;;8.80;;
34019;SDS011;20895;51.034;3.742;2022-07-23T03:54:12;13.18;;;9.48;;
34019;SDS011;20895;51.034;3.742;2022-07-23T03:56:37;13.18;;;10.27;;
34019;SDS011;20895;51.034;3.742;2022-07-23T03:59:03;12.65;;;9.57;;
34019;SDS011;20895;51.034;3.742;2022-07-23T04:01:28;13.77;;;9.02;;
34019;SDS011;20895;51.034;3.742;2022-07-23T04:03:53;15.25;;;9.85;;
34019;SDS011;20895;51.034;3.742;2022-07-23T04:06:18;14.48;;;9.63;;
34019;SDS011;20895;51.034;3.742;2022-07-23T04:08:44;11.85;;;10.05;;
34019;SDS011;20895;51.034;3.742;2022-07-23T04:11:09;12.95;;;9.57;;
34019;SDS011;20895;51.034;3.742;2022-07-23T04:13:34;14.40;;;9.98;;
34019;SDS011;20895;51.034;3.742;2022-07-23T04:15:59;12.93;;;8.50;;
34019;SDS011;20895;51.034;3.742;2022-07-23T04:18:25;14.57;;;9.55;;
34019;SDS011;20895;51.034;3.742;2022-07-23T04:20:51;12.30;;;9.50;;
34019;SDS011;20895;51.034;3.742;2022-07-23T04:23:16;13.05;;;9.35;;
34019;SDS011;20895;51.034;3.742;2022-07-23T04:25:42;11.90;;;10.27;;
34019;SDS011;20895;51.034;3.742;2022-07-23T04:28:07;14.30;;;9.68;;
34019;SDS011;20895;51.034;3.742;2022-07-23T04:30:32;13.45;;;8.88;;
34019;SDS011;20895;51.034;3.742;2022-07-23T04:32:57;13.43;;;10.13;;
34019;SDS011;20895;51.034;3.742;2022-07-23T04:35:22;16.63;;;9.77;;
34019;SDS011;20895;51.034;3.742;2022-07-23T04:37:48;11.65;;;9.02;;
34019;SDS011;20895;51.034;3.742;2022-07-23T04:40:13;12.60;;;10.02;;
34019;SDS011;20895;51.034;3.742;2022-07-23T04:42:38;11.70;;;10.10;;
34019;SDS011;20895;51.034;3.742;2022-07-23T04:45:04;16.48;;;10.02;;
34019;SDS011;20895;51.034;3.742;2022-07-23T04:47:30;13.30;;;9.85;;
34019;SDS011;20895;51.034;3.742;2022-07-23T04:49:55;14.85;;;9.65;;
34019;SDS011;20895;51.034;3.742;2022-07-23T04:52:21;17.90;;;9.85;;
34019;SDS011;20895;51.034;3.742;2022-07-23T04:54:46;12.73;;;8.93;;
34019;SDS011;20895;51.034;3.742;2022-07-23T04:57:11;12.15;;;9.45;;
34019;SDS011;20895;51.034;3.742;2022-07-23T04:59:36;13.57;;;9.82;;
34019;SDS011;20895;51.034;3.742;2022-07-23T05:02:02;11.50;;;10.30;;
34019;SDS011;20895;51.034;3.742;2022-07-23T05:04:27;12.90;;;9.85;;
34019;SDS011;20895;51.034;3.742;2022-07-23T05:06:52;14.25;;;10.10;;
34019;SDS011;20895;51.034;3.742;2022-07-23T05:09:17;11.73;;;9.57;;
34019;SDS011;20895;51.034;3.742;2022-07-23T05:11:43;13.13;;;9.82;;
34019;SDS011;20895;51.034;3.742;2022-07-23T05:14:08;15.43;;;9.93;;
34019;SDS011;20895;51.034;3.742;2022-07-23T05:16:33;11.50;;;9.48;;
34019;SDS011;20895;51.034;3.742;2022-07-23T05:18:58;12.70;;;10.10;;
34019;SDS011;20895;51.034;3.742;2022-07-23T05:21:23;12.23;;;9.57;;
34019;SDS011;20895;51.034;3.742;2022-07-23T05:23:49;13.02;;;9.45;;
34019;SDS011;20895;51.034;3.742;2022-07-23T05:26:14;10.38;;;9.18;;
34019;SDS011;20895;51.034;3.742;2022-07-23T05:28:39;12.05;;;9.38;;
34019;SDS011;20895;51.034;3.742;2022-07-23T05:31:04;14.13;;;8.90;;
34019;SDS011;20895;51.034;3.742;2022-07-23T05:33:30;14.48;;;8.80;;
34019;SDS011;20895;51.034;3.742;2022-07-23T05:36:05;11.82;;;9.65;;
34019;SDS011;20895;51.034;3.742;2022-07-23T05:38:31;11.98;;;9.68;;
34019;SDS011;20895;51.034;3.742;2022-07-23T05:40:56;11.73;;;9.07;;
34019;SDS011;20895;51.034;3.742;2022-07-23T05:43:22;12.43;;;9.27;;
34019;SDS011;20895;51.034;3.742;2022-07-23T05:45:47;12.48;;;8.90;;
34019;SDS011;20895;51.034;3.742;2022-07-23T05:48:12;13.40;;;8.77;;
34019;SDS011;20895;51.034;3.742;2022-07-23T05:50:37;9.40;;;8.18;;
34019;SDS011;20895;51.034;3.742;2022-07-23T05:53:03;10.68;;;8.52;;
34019;SDS011;20895;51.034;3.742;2022-07-23T05:55:28;12.07;;;9.15;;
34019;SDS011;20895;51.034;3.742;2022-07-23T05:57:56;10.25;;;8.63;;
34019;SDS011;20895;51.034;3.742;2022-07-23T06:00:21;11.82;;;8.70;;
34019;SDS011;20895;51.034;3.742;2022-07-23T06:02:47;9.80;;;7.90;;
34019;SDS011;20895;51.034;3.742;2022-07-23T06:05:12;15.68;;;10.05;;
34019;SDS011;20895;51.034;3.742;2022-07-23T06:07:37;11.05;;;7.60;;
34019;SDS011;20895;51.034;3.742;2022-07-23T06:10:03;12.82;;;8.20;;
34019;SDS011;20895;51.034;3.742;2022-07-23T06:12:29;11.90;;;7.68;;
34019;SDS011;20895;51.034;3.742;2022-07-23T06:14:54;11.85;;;8.38;;
34019;SDS011;20895;51.034;3.742;2022-07-23T06:17:19;9.88;;;7.88;;
34019;SDS011;20895;51.034;3.742;2022-07-23T06:19:44;11.30;;;7.32;;
34019;SDS011;20895;51.034;3.742;2022-07-23T06:22:10;12.15;;;8.30;;
34019;SDS011;20895;51.034;3.742;2022-07-23T06:24:35;12.40;;;7.55;;
34019;SDS011;20895;51.034;3.742;2022-07-23T06:27:00;9.65;;;7.47;;
34019;SDS011;20895;51.034;3.742;2022-07-23T06:29:25;10.57;;;8.00;;
34019;SDS011;20895;51.034;3.742;2022-07-23T06:31:51;11.23;;;8.48;;
34019;SDS011;20895;51.034;3.742;2022-07-23T06:34:16;11.55;;;8.32;;
34019;SDS011;20895;51.034;3.742;2022-07-23T06:36:41;10.88;;;7.82;;
34019;SDS011;20895;51.034;3.742;2022-07-23T06:39:07;14.27;;;7.57;;
34019;SDS011;20895;51.034;3.742;2022-07-23T06:41:32;12.60;;;8.50;;
34019;SDS011;20895;51.034;3.742;2022-07-23T06:43:57;11.48;;;8.07;;
34019;SDS011;20895;51.034;3.742;2022-07-23T06:46:22;10.52;;;7.72;;
34019;SDS011;20895;51.034;3.742;2022-07-23T06:48:48;9.98;;;7.70;;
34019;SDS011;20895;51.034;3.742;2022-07-23T06:51:13;11.07;;;7.13;;
34019;SDS011;20895;51.034;3.742;2022-07-23T06:53:38;11.73;;;8.25;;
34019;SDS011;20895;51.034;3.742;2022-07-23T06:56:04;9.30;;;6.97;;
34019;SDS011;20895;51.034;3.742;2022-07-23T06:58:29;10.70;;;7.35;;
34019;SDS011;20895;51.034;3.742;2022-07-23T07:00:54;13.07;;;8.20;;
34019;SDS011;20895;51.034;3.742;2022-07-23T07:03:21;8.75;;;7.25;;
34019;SDS011;20895;51.034;3.742;2022-07-23T07:05:47;11.55;;;7.75;;
34019;SDS011;20895;51.034;3.742;2022-07-23T07:08:12;11.82;;;9.23;;
34019;SDS011;20895;51.034;3.742;2022-07-23T07:10:37;11.90;;;7.55;;
34019;SDS011;20895;51.034;3.742;2022-07-23T07:13:03;8.10;;;6.68;;
34019;SDS011;20895;51.034;3.742;2022-07-23T07:15:28;9.45;;;7.78;;
34019;SDS011;20895;51.034;3.742;2022-07-23T07:17:53;12.10;;;7.47;;
34019;SDS011;20895;51.034;3.742;2022-07-23T07:20:18;11.38;;;7.88;;
34019;SDS011;20895;51.034;3.742;2022-07-23T07:22:44;13.60;;;7.97;;
34019;SDS011;20895;51.034;3.742;2022-07-23T07:25:09;11.63;;;7.15;;
34019;SDS011;20895;51.034;3.742;2022-07-23T07:27:35;11.63;;;7.20;;
34019;SDS011;20895;51.034;3.742;2022-07-23T07:30:00;7.00;;;5.97;;
34019;SDS011;20895;51.034;3.742;2022-07-23T07:32:25;11.85;;;7.38;;
34019;SDS011;20895;51.034;3.742;2022-07-23T07:34:51;9.43;;;6.53;;
34019;SDS011;20895;51.034;3.742;2022-07-23T07:37:16;10.75;;;6.28;;
34019;SDS011;20895;51.034;3.742;2022-07-23T07:39:41;7.97;;;6.00;;
34019;SDS011;20895;51.034;3.742;2022-07-23T07:42:07;7.85;;;6.57;;
34019;SDS011;20895;51.034;3.742;2022-07-23T07:44:32;9.25;;;6.45;;
34019;SDS011;20895;51.034;3.742;2022-07-23T07:46:57;12.43;;;6.65;;
34019;SDS011;20895;51.034;3.742;2022-07-23T07:49:23;8.63;;;5.95;;
34019;SDS011;20895;51.034;3.742;2022-07-23T07:51:48;9.88;;;6.40;;
34019;SDS011;20895;51.034;3.742;2022-07-23T07:54:14;12.13;;;6.80;;
34019;SDS011;20895;51.034;3.742;2022-07-23T07:56:39;8.93;;;5.72;;
34019;SDS011;20895;51.034;3.742;2022-07-23T07:59:04;8.98;;;6.50;;
34019;SDS011;20895;51.034;3.742;2022-07-23T08:01:29;7.90;;;6.90;;
34019;SDS011;20895;51.034;3.742;2022-07-23T08:03:55;11.80;;;8.23;;
34019;SDS011;20895;51.034;3.742;2022-07-23T08:06:20;8.57;;;6.18;;
34019;SDS011;20895;51.034;3.742;2022-07-23T08:08:45;9.00;;;6.30;;
34019;SDS011;20895;51.034;3.742;2022-07-23T08:11:10;11.95;;;7.22;;
34019;SDS011;20895;51.034;3.742;2022-07-23T08:13:36;7.97;;;6.43;;
34019;SDS011;20895;51.034;3.742;2022-07-23T08:16:01;11.80;;;6.80;;
34019;SDS011;20895;51.034;3.742;2022-07-23T08:18:26;7.78;;;6.15;;
34019;SDS011;20895;51.034;3.742;2022-07-23T08:20:51;7.97;;;6.30;;
34019;SDS011;20895;51.034;3.742;2022-07-23T08:23:17;9.10;;;5.80;;
34019;SDS011;20895;51.034;3.742;2022-07-23T08:25:44;9.52;;;6.78;;
34019;SDS011;20895;51.034;3.742;2022-07-23T08:28:10;10.23;;;5.68;;
34019;SDS011;20895;51.034;3.742;2022-07-23T08:30:36;11.10;;;6.65;;
34019;SDS011;20895;51.034;3.742;2022-07-23T08:33:06;11.60;;;6.20;;
34019;SDS011;20895;51.034;3.742;2022-07-23T08:35:36;9.25;;;5.60;;
34019;SDS011;20895;51.034;3.742;2022-07-23T08:38:03;8.52;;;6.50;;
34019;SDS011;20895;51.034;3.742;2022-07-23T08:40:29;7.70;;;5.65;;
34019;SDS011;20895;51.034;3.742;2022-07-23T08:42:54;8.57;;;5.13;;
34019;SDS011;20895;51.034;3.742;2022-07-23T08:45:21;6.88;;;5.00;;
34019;SDS011;20895;51.034;3.742;2022-07-23T08:47:49;9.77;;;6.07;;
34019;SDS011;20895;51.034;3.742;2022-07-23T08:50:14;9.98;;;5.82;;
34019;SDS011;20895;51.034;3.742;2022-07-23T08:52:40;8.40;;;6.10;;
34019;SDS011;20895;51.034;3.742;2022-07-23T08:55:05;8.05;;;4.80;;
34019;SDS011;20895;51.034;3.742;2022-07-23T08:57:32;7.22;;;5.03;;
34019;SDS011;20895;51.034;3.742;2022-07-23T08:59:58;6.95;;;4.75;;
34019;SDS011;20895;51.034;3.742;2022-07-23T09:02:23;6.32;;;3.50;;
34019;SDS011;20895;51.034;3.742;2022-07-23T09:04:48;9.65;;;4.22;;
34019;SDS011;20895;51.034;3.742;2022-07-23T09:07:14;7.97;;;3.95;;
34019;SDS011;20895;51.034;3.742;2022-07-23T09:09:39;7.43;;;4.13;;
34019;SDS011;20895;51.034;3.742;2022-07-23T09:12:06;8.50;;;4.60;;
34019;SDS011;20895;51.034;3.742;2022-07-23T09:14:41;8.75;;;4.07;;
34019;SDS011;20895;51.034;3.742;2022-07-23T09:17:14;6.00;;;4.07;;
34019;SDS011;20895;51.034;3.742;2022-07-23T09:19:40;5.55;;;3.85;;
34019;SDS011;20895;51.034;3.742;2022-07-23T09:27:45;7.63;;;4.43;;
34019;SDS011;20895;51.034;3.742;2022-07-23T09:30:10;4.28;;;3.35;;
34019;SDS011;20895;51.034;3.742;2022-07-23T09:32:35;5.15;;;3.22;;
34019;SDS011;20895;51.034;3.742;2022-07-23T09:35:01;6.82;;;3.80;;
34019;SDS011;20895;51.034;3.742;2022-07-23T09:37:26;8.52;;;4.13;;
34019;SDS011;20895;51.034;3.742;2022-07-23T09:39:52;5.63;;;3.50;;
34019;SDS011;20895;51.034;3.742;2022-07-23T09:42:28;5.95;;;3.40;;
34019;SDS011;20895;51.034;3.742;2022-07-23T09:44:54;4.32;;;2.65;;
34019;SDS011;20895;51.034;3.742;2022-07-23T09:47:20;6.60;;;2.85;;
34019;SDS011;20895;51.034;3.742;2022-07-23T09:52:29;6.82;;;3.78;;
34019;SDS011;20895;51.034;3.742;2022-07-23T09:54:58;4.60;;;3.30;;
34019;SDS011;20895;51.034;3.742;2022-07-23T09:57:24;5.25;;;3.13;;
34019;SDS011;20895;51.034;3.742;2022-07-23T09:59:51;4.65;;;2.88;;
34019;SDS011;20895;51.034;3.742;2022-07-23T10:02:16;4.82;;;3.00;;
34019;SDS011;20895;51.034;3.742;2022-07-23T10:04:42;5.63;;;2.92;;
34019;SDS011;20895;51.034;3.742;2022-07-23T10:07:08;6.88;;;3.05;;
34019;SDS011;20895;51.034;3.742;2022-07-23T10:09:41;6.18;;;3.53;;
34019;SDS011;20895;51.034;3.742;2022-07-23T10:12:11;4.40;;;3.20;;
34019;SDS011;20895;51.034;3.742;2022-07-23T10:14:37;4.43;;;2.72;;
34019;SDS011;20895;51.034;3.742;2022-07-23T10:17:03;5.47;;;3.63;;
34019;SDS011;20895;51.034;3.742;2022-07-23T10:19:28;5.55;;;3.03;;
34019;SDS011;20895;51.034;3.742;2022-07-23T10:21:57;6.18;;;3.95;;
34019;SDS011;20895;51.034;3.742;2022-07-23T10:27:04;4.43;;;3.50;;
34019;SDS011;20895;51.034;3.742;2022-07-23T10:32:20;7.07;;;3.67;;
34019;SDS011;20895;51.034;3.742;2022-07-23T10:37:14;5.70;;;2.90;;
34019;SDS011;20895;51.034;3.742;2022-07-23T10:39:47;4.90;;;2.85;;
34019;SDS011;20895;51.034;3.742;2022-07-23T10:42:13;5.45;;;3.42;;
34019;SDS011;20895;51.034;3.742;2022-07-23T10:44:42;4.20;;;2.70;;
34019;SDS011;20895;51.034;3.742;2022-07-23T10:47:08;6.25;;;2.83;;
34019;SDS011;20895;51.034;3.742;2022-07-23T10:49:43;4.53;;;2.55;;
34019;SDS011;20895;51.034;3.742;2022-07-23T10:57:18;4.45;;;3.13;;
34019;SDS011;20895;51.034;3.742;2022-07-23T11:02:43;6.72;;;2.60;;
34019;SDS011;20895;51.034;3.742;2022-07-23T11:05:10;4.65;;;2.30;;
34019;SDS011;20895;51.034;3.742;2022-07-23T11:07:36;4.03;;;2.35;;
34019;SDS011;20895;51.034;3.742;2022-07-23T11:10:02;5.63;;;2.17;;
34019;SDS011;20895;51.034;3.742;2022-07-23T11:15:06;4.80;;;2.63;;
34019;SDS011;20895;51.034;3.742;2022-07-23T11:17:35;5.78;;;2.47;;
34019;SDS011;20895;51.034;3.742;2022-07-23T11:22:37;4.80;;;2.17;;
34019;SDS011;20895;51.034;3.742;2022-07-23T11:25:02;2.03;;;1.55;;
34019;SDS011;20895;51.034;3.742;2022-07-23T11:27:40;5.90;;;1.80;;
34019;SDS011;20895;51.034;3.742;2022-07-23T11:30:09;3.90;;;1.92;;
34019;SDS011;20895;51.034;3.742;2022-07-23T11:32:39;3.67;;;2.00;;
34019;SDS011;20895;51.034;3.742;2022-07-23T11:37:45;3.80;;;1.75;;
34019;SDS011;20895;51.034;3.742;2022-07-23T11:40:12;4.75;;;2.40;;
34019;SDS011;20895;51.034;3.742;2022-07-23T11:42:58;3.00;;;1.85;;
34019;SDS011;20895;51.034;3.742;2022-07-23T11:45:24;4.13;;;2.63;;
34019;SDS011;20895;51.034;3.742;2022-07-23T11:47:50;3.58;;;1.80;;
34019;SDS011;20895;51.034;3.742;2022-07-23T11:50:15;3.35;;;1.90;;
34019;SDS011;20895;51.034;3.742;2022-07-23T11:52:40;3.42;;;2.30;;
34019;SDS011;20895;51.034;3.742;2022-07-23T11:55:07;6.05;;;2.38;;
34019;SDS011;20895;51.034;3.742;2022-07-23T11:57:34;3.38;;;1.95;;
34019;SDS011;20895;51.034;3.742;2022-07-23T12:00:07;4.53;;;2.33;;
34019;SDS011;20895;51.034;3.742;2022-07-23T12:02:34;3.70;;;2.45;;
34019;SDS011;20895;51.034;3.742;2022-07-23T12:05:00;4.13;;;2.30;;
34019;SDS011;20895;51.034;3.742;2022-07-23T12:07:35;3.65;;;2.30;;
34019;SDS011;20895;51.034;3.742;2022-07-23T12:10:08;2.22;;;1.80;;
34019;SDS011;20895;51.034;3.742;2022-07-23T12:12:35;4.43;;;2.50;;
34019;SDS011;20895;51.034;3.742;2022-07-23T12:15:01;4.82;;;3.30;;
34019;SDS011;20895;51.034;3.742;2022-07-23T12:17:28;7.45;;;4.07;;
34019;SDS011;20895;51.034;3.742;2022-07-23T12:19:54;3.17;;;2.33;;
34019;SDS011;20895;51.034;3.742;2022-07-23T12:22:19;3.58;;;2.53;;
34019;SDS011;20895;51.034;3.742;2022-07-23T12:25:05;3.47;;;2.38;;
34019;SDS011;20895;51.034;3.742;2022-07-23T12:27:31;4.40;;;2.10;;
34019;SDS011;20895;51.034;3.742;2022-07-23T12:29:56;2.93;;;2.03;;
34019;SDS011;20895;51.034;3.742;2022-07-23T12:32:22;3.83;;;2.17;;
34019;SDS011;20895;51.034;3.742;2022-07-23T12:34:49;3.05;;;2.22;;
34019;SDS011;20895;51.034;3.742;2022-07-23T12:37:32;3.58;;;2.03;;
34019;SDS011;20895;51.034;3.742;2022-07-23T12:39:57;2.63;;;2.03;;
34019;SDS011;20895;51.034;3.742;2022-07-23T12:42:23;4.10;;;2.75;;
34019;SDS011;20895;51.034;3.742;2022-07-23T12:45:08;6.72;;;2.65;;
34019;SDS011;20895;51.034;3.742;2022-07-23T12:53:12;4.80;;;2.90;;
34019;SDS011;20895;51.034;3.742;2022-07-23T12:55:39;5.85;;;2.72;;
34019;SDS011;20895;51.034;3.742;2022-07-23T12:58:09;4.20;;;2.58;;
34019;SDS011;20895;51.034;3.742;2022-07-23T13:03:35;4.00;;;2.63;;
34019;SDS011;20895;51.034;3.742;2022-07-23T13:06:02;3.63;;;2.28;;
34019;SDS011;20895;51.034;3.742;2022-07-23T13:08:28;6.72;;;3.22;;
34019;SDS011;20895;51.034;3.742;2022-07-23T13:10:54;7.18;;;4.25;;
34019;SDS011;20895;51.034;3.742;2022-07-23T13:13:23;6.95;;;2.83;;
34019;SDS011;20895;51.034;3.742;2022-07-23T13:15:49;5.90;;;2.80;;
34019;SDS011;20895;51.034;3.742;2022-07-23T13:18:14;3.65;;;2.40;;
34019;SDS011;20895;51.034;3.742;2022-07-23T13:20:41;4.93;;;2.88;;
34019;SDS011;20895;51.034;3.742;2022-07-23T13:23:06;3.63;;;2.87;;
34019;SDS011;20895;51.034;3.742;2022-07-23T13:25:32;3.50;;;2.50;;
34019;SDS011;20895;51.034;3.742;2022-07-23T13:27:57;9.95;;;2.85;;
34019;SDS011;20895;51.034;3.742;2022-07-23T13:30:22;5.60;;;2.90;;
34019;SDS011;20895;51.034;3.742;2022-07-23T13:32:48;5.40;;;2.60;;
34019;SDS011;20895;51.034;3.742;2022-07-23T13:35:13;5.15;;;2.63;;
34019;SDS011;20895;51.034;3.742;2022-07-23T13:37:38;8.27;;;2.30;;
34019;SDS011;20895;51.034;3.742;2022-07-23T13:40:04;4.63;;;2.47;;
34019;SDS011;20895;51.034;3.742;2022-07-23T13:42:30;7.60;;;2.53;;
34019;SDS011;20895;51.034;3.742;2022-07-23T13:44:55;3.85;;;2.38;;
34019;SDS011;20895;51.034;3.742;2022-07-23T13:47:20;4.47;;;2.33;;
34019;SDS011;20895;51.034;3.742;2022-07-23T13:49:45;4.27;;;2.50;;
34019;SDS011;20895;51.034;3.742;2022-07-23T13:52:11;3.58;;;2.10;;
34019;SDS011;20895;51.034;3.742;2022-07-23T13:54:36;4.15;;;2.38;;
34019;SDS011;20895;51.034;3.742;2022-07-23T13:57:01;5.20;;;2.70;;
34019;SDS011;20895;51.034;3.742;2022-07-23T13:59:27;4.10;;;2.47;;
34019;SDS011;20895;51.034;3.742;2022-07-23T14:01:52;5.63;;;2.85;;
34019;SDS011;20895;51.034;3.742;2022-07-23T14:04:18;3.17;;;2.30;;
34019;SDS011;20895;51.034;3.742;2022-07-23T14:06:43;5.07;;;2.43;;
34019;SDS011;20895;51.034;3.742;2022-07-23T14:09:08;4.90;;;2.63;;
34019;SDS011;20895;51.034;3.742;2022-07-23T14:11:33;2.65;;;2.20;;
34019;SDS011;20895;51.034;3.742;2022-07-23T14:13:59;4.55;;;3.13;;
34019;SDS011;20895;51.034;3.742;2022-07-23T14:16:25;3.92;;;2.45;;
34019;SDS011;20895;51.034;3.742;2022-07-23T14:18:51;3.70;;;2.72;;
34019;SDS011;20895;51.034;3.742;2022-07-23T14:21:16;3.33;;;2.60;;
34019;SDS011;20895;51.034;3.742;2022-07-23T14:23:41;4.30;;;2.78;;
34019;SDS011;20895;51.034;3.742;2022-07-23T14:26:07;5.93;;;2.60;;
34019;SDS011;20895;51.034;3.742;2022-07-23T14:28:33;5.90;;;3.50;;
34019;SDS011;20895;51.034;3.742;2022-07-23T14:30:59;4.53;;;3.35;;
34019;SDS011;20895;51.034;3.742;2022-07-23T14:33:24;4.20;;;2.72;;
34019;SDS011;20895;51.034;3.742;2022-07-23T14:35:49;4.63;;;2.58;;
34019;SDS011;20895;51.034;3.742;2022-07-23T14:38:14;4.07;;;2.65;;
34019;SDS011;20895;51.034;3.742;2022-07-23T14:40:40;5.80;;;2.87;;
34019;SDS011;20895;51.034;3.742;2022-07-23T14:43:06;5.47;;;2.90;;
34019;SDS011;20895;51.034;3.742;2022-07-23T14:45:31;3.53;;;2.63;;
34019;SDS011;20895;51.034;3.742;2022-07-23T14:47:56;5.43;;;2.80;;
34019;SDS011;20895;51.034;3.742;2022-07-23T14:50:22;5.30;;;2.47;;
34019;SDS011;20895;51.034;3.742;2022-07-23T14:52:47;5.50;;;2.65;;
34019;SDS011;20895;51.034;3.742;2022-07-23T14:55:12;4.20;;;2.72;;
34019;SDS011;20895;51.034;3.742;2022-07-23T14:57:38;3.45;;;2.70;;
34019;SDS011;20895;51.034;3.742;2022-07-23T15:00:03;4.60;;;2.57;;
34019;SDS011;20895;51.034;3.742;2022-07-23T15:02:29;3.35;;;2.47;;
34019;SDS011;20895;51.034;3.742;2022-07-23T15:04:54;7.90;;;3.13;;
34019;SDS011;20895;51.034;3.742;2022-07-23T15:07:20;6.23;;;3.63;;
34019;SDS011;20895;51.034;3.742;2022-07-23T15:09:45;5.70;;;4.23;;
34019;SDS011;20895;51.034;3.742;2022-07-23T15:12:11;5.13;;;3.38;;
34019;SDS011;20895;51.034;3.742;2022-07-23T15:14:36;4.47;;;3.10;;